PWSweather.com
Personal Weather Stations
Station Observations
KWIPARKF
Flambeau River State Forest, Park Falls, WI 54552

Flambeau River State ForestPark Falls, WI 54552

Lat: 45.81943, Lon: -90.61676

Elevation: 1476

Station Type: Davis Vantage Pro2 Plus

Latest ConditionsUpdated 8:20:01 AM CST Tuesday, Dec 18, 2018
Currently Today's Max Today's Min Today's Average
Temperature 23.8°F-4.6°C 23.8°F-4.6°C 11.6°F-11.3°C 16.2°F-8.8°C
Dew Point 18.2°F-7.7°C 18.2°F-7.7°C 8.5°F-13.1°C 12.9°F-10.6°C
Winds Calm Calm 2.3 mph -3.7 kmh - - 0.0 mph 0.0 kmh
Wind Gusts -- 8.1 mph13.0 kmh - -
Humidity 79% 92% 79% 87%
Pressure 30.09 in1019.0 mb 30.26 in1024.7 mb 30.09 in1019.0 mb -
Hour Temp Dew Point Humidity Winds Wind Gusts Pressure Precip Precip Rate Daily Precip Total
08:20 AM 23.8°F-4.6°C 18.2°F-7.7°C 79% Calm Calm -- 30.09 in1019.0 mb - 0.00 in0.0 mm 0.00 in0.0 mm
08:10 AM 23.4°F-4.8°C 18.1°F-7.7°C 80% 2.3 mph S3.7 kmh S 8.1 mph13.0 kmh 30.09 in1019.0 mb - 0.00 in0.0 mm 0.00 in0.0 mm
08:00 AM 23.1°F-4.9°C 17.8°F-7.9°C 80% Calm Calm -- 30.09 in1019.0 mb - 0.00 in0.0 mm 0.00 in0.0 mm
07:50 AM 22.7°F-5.2°C 17.7°F-7.9°C 81% Calm Calm -- 30.10 in1019.3 mb - 0.00 in0.0 mm 0.00 in0.0 mm
07:40 AM 22.2°F-5.4°C 17.5°F-8.1°C 82% Calm Calm -- 30.10 in1019.3 mb - 0.00 in0.0 mm 0.00 in0.0 mm
07:30 AM 21.7°F-5.7°C 17.1°F-8.3°C 82% Calm Calm -- 30.11 in1019.6 mb - 0.00 in0.0 mm 0.00 in0.0 mm
07:20 AM 21.4°F-5.9°C 17.0°F-8.3°C 83% Calm Calm -- 30.11 in1019.6 mb - 0.00 in0.0 mm 0.00 in0.0 mm
07:10 AM 20.8°F-6.2°C 16.7°F-8.5°C 84% Calm Calm 1.2 mph1.9 kmh 30.12 in1020.0 mb - 0.00 in0.0 mm 0.00 in0.0 mm
07:00 AM 20.3°F-6.5°C 16.5°F-8.6°C 85% Calm Calm -- 30.12 in1020.0 mb - 0.00 in0.0 mm 0.00 in0.0 mm
06:50 AM 20.1°F-6.6°C 16.3°F-8.7°C 85% Calm Calm -- 30.13 in1020.3 mb - 0.00 in0.0 mm 0.00 in0.0 mm
06:40 AM 19.9°F-6.7°C 16.1°F-8.8°C 85% Calm Calm -- 30.13 in1020.3 mb - 0.00 in0.0 mm 0.00 in0.0 mm
06:30 AM 19.6°F-6.9°C 16.1°F-8.8°C 86% Calm Calm -- 30.14 in1020.7 mb - 0.00 in0.0 mm 0.00 in0.0 mm
06:20 AM 19.0°F-7.2°C 15.8°F-9.0°C 87% Calm Calm -- 30.14 in1020.7 mb - 0.00 in0.0 mm 0.00 in0.0 mm
06:10 AM 18.6°F-7.4°C 15.4°F-9.2°C 87% Calm Calm -- 30.14 in1020.7 mb - 0.00 in0.0 mm 0.00 in0.0 mm
06:00 AM 18.2°F-7.7°C 15.2°F-9.3°C 88% Calm Calm -- 30.15 in1021.0 mb - 0.00 in0.0 mm 0.00 in0.0 mm
05:50 AM 17.9°F-7.8°C 14.9°F-9.5°C 88% Calm Calm -- 30.15 in1021.0 mb - 0.00 in0.0 mm 0.00 in0.0 mm
05:40 AM 17.5°F-8.1°C 14.6°F-9.7°C 88% Calm Calm -- 30.15 in1021.0 mb - 0.00 in0.0 mm 0.00 in0.0 mm
05:30 AM 17.2°F-8.2°C 14.3°F-9.8°C 88% Calm Calm -- 30.15 in1021.0 mb - 0.00 in0.0 mm 0.00 in0.0 mm
05:20 AM 17.0°F-8.3°C 14.1°F-9.9°C 88% Calm Calm -- 30.15 in1021.0 mb - 0.00 in0.0 mm 0.00 in0.0 mm
05:10 AM 16.7°F-8.5°C 13.8°F-10.1°C 88% Calm Calm -- 30.16 in1021.3 mb - 0.00 in0.0 mm 0.00 in0.0 mm
05:00 AM 16.5°F-8.6°C 13.5°F-10.3°C 88% Calm Calm -- 30.16 in1021.3 mb - 0.00 in0.0 mm 0.00 in0.0 mm
04:50 AM 16.3°F-8.7°C 13.3°F-10.4°C 88% Calm Calm -- 30.17 in1021.7 mb - 0.00 in0.0 mm 0.00 in0.0 mm
04:40 AM 16.0°F-8.9°C 13.1°F-10.5°C 88% Calm Calm -- 30.18 in1022.0 mb - 0.00 in0.0 mm 0.00 in0.0 mm
04:30 AM 15.9°F-8.9°C 13.0°F-10.6°C 88% Calm Calm -- 30.19 in1022.4 mb - 0.00 in0.0 mm 0.00 in0.0 mm
04:20 AM 15.8°F-9.0°C 13.1°F-10.5°C 89% Calm Calm -- 30.20 in1022.7 mb - 0.00 in0.0 mm 0.00 in0.0 mm
04:10 AM 15.5°F-9.2°C 12.9°F-10.6°C 89% Calm Calm -- 30.20 in1022.7 mb - 0.00 in0.0 mm 0.00 in0.0 mm
04:00 AM 15.3°F-9.3°C 12.9°F-10.6°C 90% Calm Calm -- 30.21 in1023.0 mb - 0.00 in0.0 mm 0.00 in0.0 mm
03:50 AM 15.0°F-9.4°C 12.8°F-10.7°C 91% Calm Calm -- 30.21 in1023.0 mb - 0.00 in0.0 mm 0.00 in0.0 mm
03:40 AM 14.7°F-9.6°C 12.5°F-10.8°C 91% Calm Calm -- 30.21 in1023.0 mb - 0.00 in0.0 mm 0.00 in0.0 mm
03:30 AM 14.3°F-9.8°C 12.4°F-10.9°C 92% Calm Calm -- 30.22 in1023.4 mb - 0.00 in0.0 mm 0.00 in0.0 mm
03:20 AM 13.8°F-10.1°C 11.9°F-11.2°C 92% Calm Calm -- 30.23 in1023.7 mb - 0.00 in0.0 mm 0.00 in0.0 mm
03:10 AM 13.3°F-10.4°C 11.4°F-11.4°C 92% Calm Calm -- 30.23 in1023.7 mb - 0.00 in0.0 mm 0.00 in0.0 mm
03:00 AM 12.9°F-10.6°C 11.0°F-11.7°C 92% Calm Calm -- 30.23 in1023.7 mb - 0.00 in0.0 mm 0.00 in0.0 mm
02:50 AM 12.4°F-10.9°C 10.3°F-12.1°C 91% Calm Calm -- 30.23 in1023.7 mb - 0.00 in0.0 mm 0.00 in0.0 mm
02:40 AM 11.8°F-11.2°C 9.4°F-12.6°C 90% Calm Calm -- 30.24 in1024.0 mb - 0.00 in0.0 mm 0.00 in0.0 mm
02:30 AM 11.6°F-11.3°C 9.0°F-12.8°C 89% Calm Calm -- 30.24 in1024.0 mb - 0.00 in0.0 mm 0.00 in0.0 mm
02:20 AM 11.6°F-11.3°C 8.7°F-12.9°C 88% Calm Calm -- 30.25 in1024.4 mb - 0.00 in0.0 mm 0.00 in0.0 mm
02:10 AM 11.7°F-11.3°C 8.6°F-13.0°C 87% Calm Calm -- 30.25 in1024.4 mb - 0.00 in0.0 mm 0.00 in0.0 mm
02:00 AM 11.8°F-11.2°C 8.7°F-12.9°C 87% Calm Calm -- 30.25 in1024.4 mb - 0.00 in0.0 mm 0.00 in0.0 mm
01:50 AM 11.9°F-11.2°C 8.5°F-13.1°C 86% Calm Calm -- 30.25 in1024.4 mb - 0.00 in0.0 mm 0.00 in0.0 mm
01:40 AM 12.2°F-11.0°C 8.8°F-12.9°C 86% Calm Calm -- 30.25 in1024.4 mb - 0.00 in0.0 mm 0.00 in0.0 mm
01:30 AM 12.4°F-10.9°C 9.0°F-12.8°C 86% Calm Calm -- 30.25 in1024.4 mb - 0.00 in0.0 mm 0.00 in0.0 mm
01:20 AM 12.7°F-10.7°C 9.3°F-12.6°C 86% Calm Calm -- 30.25 in1024.4 mb - 0.00 in0.0 mm 0.00 in0.0 mm
01:10 AM 13.0°F-10.6°C 9.6°F-12.4°C 86% Calm Calm -- 30.25 in1024.4 mb - 0.00 in0.0 mm 0.00 in0.0 mm
01:00 AM 13.3°F-10.4°C 9.9°F-12.3°C 86% Calm Calm -- 30.25 in1024.4 mb - 0.00 in0.0 mm 0.00 in0.0 mm
12:50 AM 13.5°F-10.3°C 10.1°F-12.2°C 86% Calm Calm -- 30.25 in1024.4 mb - 0.00 in0.0 mm 0.00 in0.0 mm
12:40 AM 13.7°F-10.2°C 10.3°F-12.1°C 86% Calm Calm -- 30.25 in1024.4 mb - 0.00 in0.0 mm 0.00 in0.0 mm
12:30 AM 13.9°F-10.1°C 10.7°F-11.8°C 87% Calm Calm -- 30.26 in1024.7 mb - 0.00 in0.0 mm 0.00 in0.0 mm
12:20 AM 14.0°F-10.0°C 10.8°F-11.8°C 87% Calm Calm -- 30.26 in1024.7 mb - 0.00 in0.0 mm 0.00 in0.0 mm
12:10 AM 13.9°F-10.1°C 10.7°F-11.8°C 87% Calm Calm -- 30.26 in1024.7 mb - 0.00 in0.0 mm 0.00 in0.0 mm
12:00 AM 13.9°F-10.1°C 10.5°F-11.9°C 86% Calm Calm -- 30.26 in1024.7 mb - 0.00 in0.0 mm 0.00 in0.0 mm